sensor_id;sensor_type;location;lat;lon;timestamp;P1;durP1;ratioP1;P2;durP2;ratioP2
19306;SDS011;9788;48.194;16.318;2023-11-21T00:00:48;5.95;;;2.58;;
19306;SDS011;9788;48.194;16.318;2023-11-21T00:03:16;7.03;;;2.55;;
19306;SDS011;9788;48.194;16.318;2023-11-21T00:05:45;5.90;;;2.30;;
19306;SDS011;9788;48.194;16.318;2023-11-21T00:08:14;13.55;;;5.22;;
19306;SDS011;9788;48.194;16.318;2023-11-21T00:10:42;5.18;;;2.13;;
19306;SDS011;9788;48.194;16.318;2023-11-21T00:13:12;6.10;;;2.30;;
19306;SDS011;9788;48.194;16.318;2023-11-21T00:15:40;6.35;;;2.65;;
19306;SDS011;9788;48.194;16.318;2023-11-21T00:18:08;7.13;;;2.83;;
19306;SDS011;9788;48.194;16.318;2023-11-21T00:20:36;6.63;;;2.35;;
19306;SDS011;9788;48.194;16.318;2023-11-21T00:23:05;6.85;;;2.42;;
19306;SDS011;9788;48.194;16.318;2023-11-21T00:25:33;8.13;;;2.50;;
19306;SDS011;9788;48.194;16.318;2023-11-21T00:28:01;7.93;;;2.53;;
19306;SDS011;9788;48.194;16.318;2023-11-21T00:30:31;6.05;;;2.55;;
19306;SDS011;9788;48.194;16.318;2023-11-21T00:32:59;7.35;;;2.97;;
19306;SDS011;9788;48.194;16.318;2023-11-21T00:35:28;4.95;;;2.50;;
19306;SDS011;9788;48.194;16.318;2023-11-21T00:37:56;8.15;;;2.13;;
19306;SDS011;9788;48.194;16.318;2023-11-21T00:40:24;5.88;;;2.42;;
19306;SDS011;9788;48.194;16.318;2023-11-21T00:42:53;7.13;;;2.20;;
19306;SDS011;9788;48.194;16.318;2023-11-21T00:45:22;8.55;;;2.42;;
19306;SDS011;9788;48.194;16.318;2023-11-21T00:47:51;7.30;;;2.35;;
19306;SDS011;9788;48.194;16.318;2023-11-21T00:50:21;6.55;;;2.10;;
19306;SDS011;9788;48.194;16.318;2023-11-21T00:52:50;4.10;;;2.33;;
19306;SDS011;9788;48.194;16.318;2023-11-21T00:55:19;8.65;;;2.70;;
19306;SDS011;9788;48.194;16.318;2023-11-21T00:57:47;3.83;;;2.22;;
19306;SDS011;9788;48.194;16.318;2023-11-21T01:00:16;7.05;;;2.38;;
19306;SDS011;9788;48.194;16.318;2023-11-21T01:02:44;5.68;;;2.33;;
19306;SDS011;9788;48.194;16.318;2023-11-21T01:05:15;5.28;;;2.50;;
19306;SDS011;9788;48.194;16.318;2023-11-21T01:07:43;3.55;;;2.00;;
19306;SDS011;9788;48.194;16.318;2023-11-21T01:10:12;4.43;;;2.33;;
19306;SDS011;9788;48.194;16.318;2023-11-21T01:12:40;7.03;;;2.33;;
19306;SDS011;9788;48.194;16.318;2023-11-21T01:15:09;6.53;;;2.40;;
19306;SDS011;9788;48.194;16.318;2023-11-21T01:17:38;7.05;;;2.55;;
19306;SDS011;9788;48.194;16.318;2023-11-21T01:20:08;8.48;;;2.65;;
19306;SDS011;9788;48.194;16.318;2023-11-21T01:22:41;9.50;;;2.95;;
19306;SDS011;9788;48.194;16.318;2023-11-21T01:25:10;9.07;;;2.97;;
19306;SDS011;9788;48.194;16.318;2023-11-21T01:27:38;8.55;;;3.00;;
19306;SDS011;9788;48.194;16.318;2023-11-21T01:30:06;7.15;;;3.00;;
19306;SDS011;9788;48.194;16.318;2023-11-21T01:32:37;7.07;;;2.88;;
19306;SDS011;9788;48.194;16.318;2023-11-21T01:35:06;5.63;;;2.50;;
19306;SDS011;9788;48.194;16.318;2023-11-21T01:37:36;5.50;;;2.50;;
19306;SDS011;9788;48.194;16.318;2023-11-21T01:40:07;7.28;;;2.58;;
19306;SDS011;9788;48.194;16.318;2023-11-21T01:42:40;6.32;;;2.20;;
19306;SDS011;9788;48.194;16.318;2023-11-21T01:45:10;8.25;;;2.50;;
19306;SDS011;9788;48.194;16.318;2023-11-21T01:47:40;8.20;;;2.63;;
19306;SDS011;9788;48.194;16.318;2023-11-21T01:50:13;10.00;;;2.30;;
19306;SDS011;9788;48.194;16.318;2023-11-21T01:52:46;8.80;;;2.33;;
19306;SDS011;9788;48.194;16.318;2023-11-21T01:55:19;6.75;;;2.60;;
19306;SDS011;9788;48.194;16.318;2023-11-21T01:57:51;7.18;;;2.40;;
19306;SDS011;9788;48.194;16.318;2023-11-21T02:00:19;6.93;;;2.47;;
19306;SDS011;9788;48.194;16.318;2023-11-21T02:02:48;5.20;;;2.30;;
19306;SDS011;9788;48.194;16.318;2023-11-21T02:05:17;9.48;;;2.35;;
19306;SDS011;9788;48.194;16.318;2023-11-21T02:07:46;6.85;;;2.42;;
19306;SDS011;9788;48.194;16.318;2023-11-21T02:10:15;9.07;;;2.20;;
19306;SDS011;9788;48.194;16.318;2023-11-21T02:12:47;8.65;;;3.20;;
19306;SDS011;9788;48.194;16.318;2023-11-21T02:15:16;5.93;;;2.45;;
19306;SDS011;9788;48.194;16.318;2023-11-21T02:17:47;7.38;;;2.70;;
19306;SDS011;9788;48.194;16.318;2023-11-21T02:20:19;5.88;;;2.40;;
19306;SDS011;9788;48.194;16.318;2023-11-21T02:22:51;7.30;;;2.45;;
19306;SDS011;9788;48.194;16.318;2023-11-21T02:25:24;8.57;;;2.70;;
19306;SDS011;9788;48.194;16.318;2023-11-21T02:27:55;11.82;;;2.65;;
19306;SDS011;9788;48.194;16.318;2023-11-21T02:30:24;7.93;;;2.25;;
19306;SDS011;9788;48.194;16.318;2023-11-21T02:32:54;5.93;;;2.17;;
19306;SDS011;9788;48.194;16.318;2023-11-21T02:35:24;15.15;;;4.78;;
19306;SDS011;9788;48.194;16.318;2023-11-21T02:37:54;4.47;;;2.40;;
19306;SDS011;9788;48.194;16.318;2023-11-21T02:40:25;5.78;;;2.38;;
19306;SDS011;9788;48.194;16.318;2023-11-21T02:42:53;7.72;;;2.55;;
19306;SDS011;9788;48.194;16.318;2023-11-21T02:45:24;6.38;;;1.98;;
19306;SDS011;9788;48.194;16.318;2023-11-21T02:47:52;6.20;;;2.10;;
19306;SDS011;9788;48.194;16.318;2023-11-21T02:50:25;6.65;;;2.03;;
19306;SDS011;9788;48.194;16.318;2023-11-21T02:52:55;5.13;;;2.20;;
19306;SDS011;9788;48.194;16.318;2023-11-21T02:55:24;7.75;;;2.55;;
19306;SDS011;9788;48.194;16.318;2023-11-21T02:57:53;7.03;;;2.17;;
19306;SDS011;9788;48.194;16.318;2023-11-21T03:00:22;7.78;;;2.20;;
19306;SDS011;9788;48.194;16.318;2023-11-21T03:02:53;6.72;;;2.05;;
19306;SDS011;9788;48.194;16.318;2023-11-21T03:05:23;4.45;;;2.13;;
19306;SDS011;9788;48.194;16.318;2023-11-21T03:07:51;6.78;;;2.40;;
19306;SDS011;9788;48.194;16.318;2023-11-21T03:10:21;6.60;;;2.50;;
19306;SDS011;9788;48.194;16.318;2023-11-21T03:12:49;6.15;;;2.63;;
19306;SDS011;9788;48.194;16.318;2023-11-21T03:15:18;7.93;;;2.80;;
19306;SDS011;9788;48.194;16.318;2023-11-21T03:17:46;6.68;;;2.35;;
19306;SDS011;9788;48.194;16.318;2023-11-21T03:20:16;8.20;;;2.55;;
19306;SDS011;9788;48.194;16.318;2023-11-21T03:22:44;8.05;;;2.90;;
19306;SDS011;9788;48.194;16.318;2023-11-21T03:25:12;8.75;;;1.92;;
19306;SDS011;9788;48.194;16.318;2023-11-21T03:27:42;9.82;;;2.33;;
19306;SDS011;9788;48.194;16.318;2023-11-21T03:30:11;10.07;;;2.17;;
19306;SDS011;9788;48.194;16.318;2023-11-21T03:32:39;5.05;;;2.03;;
19306;SDS011;9788;48.194;16.318;2023-11-21T03:35:07;7.80;;;2.00;;
19306;SDS011;9788;48.194;16.318;2023-11-21T03:37:37;7.50;;;2.00;;
19306;SDS011;9788;48.194;16.318;2023-11-21T03:40:08;5.35;;;2.33;;
19306;SDS011;9788;48.194;16.318;2023-11-21T03:42:37;6.85;;;2.30;;
19306;SDS011;9788;48.194;16.318;2023-11-21T03:45:07;6.78;;;2.50;;
19306;SDS011;9788;48.194;16.318;2023-11-21T03:47:38;9.60;;;2.53;;
19306;SDS011;9788;48.194;16.318;2023-11-21T03:50:07;13.43;;;2.60;;
19306;SDS011;9788;48.194;16.318;2023-11-21T03:52:36;7.68;;;3.33;;
19306;SDS011;9788;48.194;16.318;2023-11-21T03:55:05;5.85;;;3.20;;
19306;SDS011;9788;48.194;16.318;2023-11-21T03:57:35;10.18;;;3.50;;
19306;SDS011;9788;48.194;16.318;2023-11-21T04:00:08;8.68;;;3.25;;
19306;SDS011;9788;48.194;16.318;2023-11-21T04:02:37;11.75;;;2.75;;
19306;SDS011;9788;48.194;16.318;2023-11-21T04:05:06;9.85;;;2.88;;
19306;SDS011;9788;48.194;16.318;2023-11-21T04:07:35;8.90;;;2.90;;
19306;SDS011;9788;48.194;16.318;2023-11-21T04:10:05;10.27;;;3.20;;
19306;SDS011;9788;48.194;16.318;2023-11-21T04:12:35;9.88;;;2.83;;
19306;SDS011;9788;48.194;16.318;2023-11-21T04:15:03;7.78;;;3.50;;
19306;SDS011;9788;48.194;16.318;2023-11-21T04:17:34;8.60;;;2.53;;
19306;SDS011;9788;48.194;16.318;2023-11-21T04:20:03;8.70;;;2.80;;
19306;SDS011;9788;48.194;16.318;2023-11-21T04:22:36;5.32;;;2.70;;
19306;SDS011;9788;48.194;16.318;2023-11-21T04:25:08;8.25;;;3.50;;
19306;SDS011;9788;48.194;16.318;2023-11-21T04:27:38;10.75;;;2.70;;
19306;SDS011;9788;48.194;16.318;2023-11-21T04:30:07;7.33;;;2.90;;
19306;SDS011;9788;48.194;16.318;2023-11-21T04:32:37;4.93;;;2.65;;
19306;SDS011;9788;48.194;16.318;2023-11-21T04:35:06;12.30;;;3.40;;
19306;SDS011;9788;48.194;16.318;2023-11-21T04:37:36;9.23;;;3.67;;
19306;SDS011;9788;48.194;16.318;2023-11-21T04:40:06;9.13;;;3.38;;
19306;SDS011;9788;48.194;16.318;2023-11-21T04:42:35;10.35;;;3.38;;
19306;SDS011;9788;48.194;16.318;2023-11-21T04:45:07;9.18;;;3.10;;
19306;SDS011;9788;48.194;16.318;2023-11-21T04:47:40;8.65;;;3.10;;
19306;SDS011;9788;48.194;16.318;2023-11-21T04:50:10;11.82;;;2.83;;
19306;SDS011;9788;48.194;16.318;2023-11-21T04:52:38;9.80;;;3.33;;
19306;SDS011;9788;48.194;16.318;2023-11-21T04:55:06;9.95;;;3.50;;
19306;SDS011;9788;48.194;16.318;2023-11-21T04:57:37;8.80;;;2.70;;
19306;SDS011;9788;48.194;16.318;2023-11-21T05:00:06;7.45;;;3.03;;
19306;SDS011;9788;48.194;16.318;2023-11-21T05:02:35;7.10;;;3.00;;
19306;SDS011;9788;48.194;16.318;2023-11-21T05:05:07;8.32;;;3.00;;
19306;SDS011;9788;48.194;16.318;2023-11-21T05:07:37;10.48;;;3.38;;
19306;SDS011;9788;48.194;16.318;2023-11-21T05:10:08;8.68;;;2.80;;
19306;SDS011;9788;48.194;16.318;2023-11-21T05:12:39;11.10;;;3.05;;
19306;SDS011;9788;48.194;16.318;2023-11-21T05:15:08;9.70;;;3.53;;
19306;SDS011;9788;48.194;16.318;2023-11-21T05:17:37;9.30;;;3.33;;
19306;SDS011;9788;48.194;16.318;2023-11-21T05:20:10;10.07;;;3.58;;
19306;SDS011;9788;48.194;16.318;2023-11-21T05:22:40;11.52;;;3.10;;
19306;SDS011;9788;48.194;16.318;2023-11-21T05:25:09;11.82;;;4.15;;
19306;SDS011;9788;48.194;16.318;2023-11-21T05:27:41;8.32;;;3.08;;
19306;SDS011;9788;48.194;16.318;2023-11-21T05:30:11;8.70;;;3.28;;
19306;SDS011;9788;48.194;16.318;2023-11-21T05:32:41;8.80;;;3.20;;
19306;SDS011;9788;48.194;16.318;2023-11-21T05:35:13;11.93;;;3.50;;
19306;SDS011;9788;48.194;16.318;2023-11-21T05:37:43;9.73;;;3.90;;
19306;SDS011;9788;48.194;16.318;2023-11-21T05:40:13;9.75;;;3.15;;
19306;SDS011;9788;48.194;16.318;2023-11-21T05:42:42;8.85;;;2.80;;
19306;SDS011;9788;48.194;16.318;2023-11-21T05:45:11;8.85;;;3.35;;
19306;SDS011;9788;48.194;16.318;2023-11-21T05:47:40;8.65;;;2.90;;
19306;SDS011;9788;48.194;16.318;2023-11-21T05:50:10;9.48;;;3.33;;
19306;SDS011;9788;48.194;16.318;2023-11-21T05:52:42;7.95;;;2.95;;
19306;SDS011;9788;48.194;16.318;2023-11-21T05:55:11;7.95;;;3.60;;
19306;SDS011;9788;48.194;16.318;2023-11-21T05:57:40;6.00;;;3.40;;
19306;SDS011;9788;48.194;16.318;2023-11-21T06:00:10;11.00;;;3.38;;
19306;SDS011;9788;48.194;16.318;2023-11-21T06:02:44;10.00;;;3.90;;
19306;SDS011;9788;48.194;16.318;2023-11-21T06:05:14;9.90;;;3.38;;
19306;SDS011;9788;48.194;16.318;2023-11-21T06:07:44;11.38;;;3.95;;
19306;SDS011;9788;48.194;16.318;2023-11-21T06:10:12;9.20;;;3.90;;
19306;SDS011;9788;48.194;16.318;2023-11-21T06:12:47;9.90;;;3.42;;
19306;SDS011;9788;48.194;16.318;2023-11-21T06:15:15;10.18;;;3.33;;
19306;SDS011;9788;48.194;16.318;2023-11-21T06:17:45;12.35;;;3.75;;
19306;SDS011;9788;48.194;16.318;2023-11-21T06:20:20;8.57;;;3.92;;
19306;SDS011;9788;48.194;16.318;2023-11-21T06:22:50;8.40;;;3.85;;
19306;SDS011;9788;48.194;16.318;2023-11-21T06:25:19;10.70;;;4.13;;
19306;SDS011;9788;48.194;16.318;2023-11-21T06:27:48;11.15;;;4.40;;
19306;SDS011;9788;48.194;16.318;2023-11-21T06:30:18;11.27;;;4.43;;
19306;SDS011;9788;48.194;16.318;2023-11-21T06:32:48;14.65;;;4.75;;
19306;SDS011;9788;48.194;16.318;2023-11-21T06:35:17;13.73;;;4.82;;
19306;SDS011;9788;48.194;16.318;2023-11-21T06:37:47;14.02;;;4.72;;
19306;SDS011;9788;48.194;16.318;2023-11-21T06:40:21;16.33;;;5.53;;
19306;SDS011;9788;48.194;16.318;2023-11-21T06:42:49;15.38;;;5.72;;
19306;SDS011;9788;48.194;16.318;2023-11-21T06:45:18;14.75;;;5.03;;
19306;SDS011;9788;48.194;16.318;2023-11-21T06:47:48;14.15;;;6.13;;
19306;SDS011;9788;48.194;16.318;2023-11-21T06:50:16;15.35;;;5.57;;
19306;SDS011;9788;48.194;16.318;2023-11-21T06:52:47;13.93;;;5.78;;
19306;SDS011;9788;48.194;16.318;2023-11-21T06:55:16;13.55;;;5.00;;
19306;SDS011;9788;48.194;16.318;2023-11-21T06:57:44;19.73;;;5.75;;
19306;SDS011;9788;48.194;16.318;2023-11-21T07:00:14;11.57;;;4.40;;
19306;SDS011;9788;48.194;16.318;2023-11-21T07:02:45;10.07;;;4.18;;
19306;SDS011;9788;48.194;16.318;2023-11-21T07:05:13;12.80;;;4.70;;
19306;SDS011;9788;48.194;16.318;2023-11-21T07:07:42;10.48;;;3.92;;
19306;SDS011;9788;48.194;16.318;2023-11-21T07:10:14;15.40;;;4.10;;
19306;SDS011;9788;48.194;16.318;2023-11-21T07:12:43;17.40;;;4.55;;
19306;SDS011;9788;48.194;16.318;2023-11-21T07:15:13;12.85;;;3.58;;
19306;SDS011;9788;48.194;16.318;2023-11-21T07:17:41;11.65;;;4.25;;
19306;SDS011;9788;48.194;16.318;2023-11-21T07:20:13;13.50;;;4.38;;
19306;SDS011;9788;48.194;16.318;2023-11-21T07:22:43;14.65;;;5.45;;
19306;SDS011;9788;48.194;16.318;2023-11-21T07:25:13;13.13;;;4.07;;
19306;SDS011;9788;48.194;16.318;2023-11-21T07:27:42;12.50;;;4.55;;
19306;SDS011;9788;48.194;16.318;2023-11-21T07:30:11;15.52;;;6.00;;
19306;SDS011;9788;48.194;16.318;2023-11-21T07:32:41;17.98;;;6.70;;
19306;SDS011;9788;48.194;16.318;2023-11-21T07:35:11;22.77;;;14.50;;
19306;SDS011;9788;48.194;16.318;2023-11-21T07:37:39;19.80;;;6.07;;
19306;SDS011;9788;48.194;16.318;2023-11-21T07:40:09;13.90;;;5.70;;
19306;SDS011;9788;48.194;16.318;2023-11-21T07:42:39;11.57;;;4.68;;
19306;SDS011;9788;48.194;16.318;2023-11-21T07:45:09;10.90;;;4.75;;
19306;SDS011;9788;48.194;16.318;2023-11-21T07:47:38;14.13;;;4.32;;
19306;SDS011;9788;48.194;16.318;2023-11-21T07:50:07;11.63;;;4.05;;
19306;SDS011;9788;48.194;16.318;2023-11-21T07:52:36;14.68;;;4.63;;
19306;SDS011;9788;48.194;16.318;2023-11-21T07:55:05;15.50;;;5.10;;
19306;SDS011;9788;48.194;16.318;2023-11-21T07:57:34;13.18;;;4.18;;
19306;SDS011;9788;48.194;16.318;2023-11-21T08:00:04;13.27;;;4.47;;
19306;SDS011;9788;48.194;16.318;2023-11-21T08:02:36;8.88;;;3.80;;
19306;SDS011;9788;48.194;16.318;2023-11-21T08:05:04;15.77;;;4.47;;
19306;SDS011;9788;48.194;16.318;2023-11-21T08:07:40;10.30;;;3.80;;
19306;SDS011;9788;48.194;16.318;2023-11-21T08:10:09;12.15;;;5.88;;
19306;SDS011;9788;48.194;16.318;2023-11-21T08:12:38;11.60;;;4.32;;
19306;SDS011;9788;48.194;16.318;2023-11-21T08:15:08;13.38;;;4.85;;
19306;SDS011;9788;48.194;16.318;2023-11-21T08:17:36;10.00;;;4.28;;
19306;SDS011;9788;48.194;16.318;2023-11-21T08:20:05;11.25;;;4.20;;
19306;SDS011;9788;48.194;16.318;2023-11-21T08:22:35;12.45;;;3.90;;
19306;SDS011;9788;48.194;16.318;2023-11-21T08:25:03;11.27;;;3.90;;
19306;SDS011;9788;48.194;16.318;2023-11-21T08:27:32;11.85;;;4.93;;
19306;SDS011;9788;48.194;16.318;2023-11-21T08:30:00;16.25;;;3.88;;
19306;SDS011;9788;48.194;16.318;2023-11-21T08:32:31;10.82;;;3.55;;
19306;SDS011;9788;48.194;16.318;2023-11-21T08:35:00;8.48;;;3.60;;
19306;SDS011;9788;48.194;16.318;2023-11-21T08:37:28;11.95;;;3.40;;
19306;SDS011;9788;48.194;16.318;2023-11-21T08:39:57;10.43;;;3.30;;
19306;SDS011;9788;48.194;16.318;2023-11-21T08:42:27;13.23;;;3.80;;
19306;SDS011;9788;48.194;16.318;2023-11-21T08:44:56;14.90;;;6.10;;
19306;SDS011;9788;48.194;16.318;2023-11-21T08:47:25;14.23;;;5.60;;
19306;SDS011;9788;48.194;16.318;2023-11-21T08:49:54;9.45;;;4.55;;
19306;SDS011;9788;48.194;16.318;2023-11-21T08:52:25;13.27;;;3.83;;
19306;SDS011;9788;48.194;16.318;2023-11-21T08:54:53;10.07;;;3.78;;
19306;SDS011;9788;48.194;16.318;2023-11-21T08:57:23;9.98;;;3.72;;
19306;SDS011;9788;48.194;16.318;2023-11-21T08:59:51;9.07;;;2.85;;
19306;SDS011;9788;48.194;16.318;2023-11-21T09:02:21;10.85;;;3.72;;
19306;SDS011;9788;48.194;16.318;2023-11-21T09:04:51;9.05;;;3.83;;
19306;SDS011;9788;48.194;16.318;2023-11-21T09:07:20;11.25;;;3.92;;
19306;SDS011;9788;48.194;16.318;2023-11-21T09:09:49;13.27;;;3.35;;
19306;SDS011;9788;48.194;16.318;2023-11-21T09:12:17;9.15;;;3.10;;
19306;SDS011;9788;48.194;16.318;2023-11-21T09:14:45;8.40;;;2.60;;
19306;SDS011;9788;48.194;16.318;2023-11-21T09:17:14;9.98;;;3.30;;
19306;SDS011;9788;48.194;16.318;2023-11-21T09:19:42;8.25;;;3.17;;
19306;SDS011;9788;48.194;16.318;2023-11-21T09:22:13;7.78;;;3.08;;
19306;SDS011;9788;48.194;16.318;2023-11-21T09:24:43;9.60;;;2.90;;
19306;SDS011;9788;48.194;16.318;2023-11-21T09:27:12;5.70;;;2.80;;
19306;SDS011;9788;48.194;16.318;2023-11-21T09:29:41;8.05;;;2.38;;
19306;SDS011;9788;48.194;16.318;2023-11-21T09:32:09;5.75;;;2.28;;
19306;SDS011;9788;48.194;16.318;2023-11-21T09:34:40;6.32;;;2.45;;
19306;SDS011;9788;48.194;16.318;2023-11-21T09:37:08;4.90;;;2.17;;
19306;SDS011;9788;48.194;16.318;2023-11-21T09:39:37;6.53;;;2.42;;
19306;SDS011;9788;48.194;16.318;2023-11-21T09:42:09;4.25;;;2.40;;
19306;SDS011;9788;48.194;16.318;2023-11-21T09:44:44;4.80;;;2.42;;
19306;SDS011;9788;48.194;16.318;2023-11-21T09:47:15;4.38;;;1.95;;
19306;SDS011;9788;48.194;16.318;2023-11-21T09:49:47;3.47;;;1.80;;
19306;SDS011;9788;48.194;16.318;2023-11-21T09:52:18;6.85;;;2.58;;
19306;SDS011;9788;48.194;16.318;2023-11-21T09:54:52;6.85;;;2.38;;
19306;SDS011;9788;48.194;16.318;2023-11-21T09:57:22;8.25;;;2.13;;
19306;SDS011;9788;48.194;16.318;2023-11-21T09:59:51;4.57;;;1.45;;
19306;SDS011;9788;48.194;16.318;2023-11-21T10:02:22;6.40;;;2.20;;
19306;SDS011;9788;48.194;16.318;2023-11-21T10:04:55;5.28;;;2.20;;
19306;SDS011;9788;48.194;16.318;2023-11-21T10:07:25;4.40;;;2.00;;
19306;SDS011;9788;48.194;16.318;2023-11-21T10:09:55;7.25;;;2.30;;
19306;SDS011;9788;48.194;16.318;2023-11-21T10:12:25;6.72;;;2.05;;
19306;SDS011;9788;48.194;16.318;2023-11-21T10:14:56;5.32;;;2.20;;
19306;SDS011;9788;48.194;16.318;2023-11-21T10:17:27;5.75;;;2.20;;
19306;SDS011;9788;48.194;16.318;2023-11-21T10:20:04;11.98;;;8.30;;
19306;SDS011;9788;48.194;16.318;2023-11-21T10:22:39;5.05;;;2.05;;
19306;SDS011;9788;48.194;16.318;2023-11-21T10:25:08;5.53;;;2.40;;
19306;SDS011;9788;48.194;16.318;2023-11-21T10:27:40;6.03;;;2.17;;
19306;SDS011;9788;48.194;16.318;2023-11-21T10:30:09;6.00;;;2.47;;
19306;SDS011;9788;48.194;16.318;2023-11-21T10:32:39;5.93;;;1.83;;
19306;SDS011;9788;48.194;16.318;2023-11-21T10:35:08;4.50;;;1.80;;
19306;SDS011;9788;48.194;16.318;2023-11-21T10:37:37;5.97;;;1.88;;
19306;SDS011;9788;48.194;16.318;2023-11-21T10:40:07;4.50;;;2.03;;
19306;SDS011;9788;48.194;16.318;2023-11-21T10:42:40;8.13;;;2.88;;
19306;SDS011;9788;48.194;16.318;2023-11-21T10:45:09;5.75;;;2.42;;
19306;SDS011;9788;48.194;16.318;2023-11-21T10:47:40;4.03;;;1.92;;
19306;SDS011;9788;48.194;16.318;2023-11-21T10:50:09;6.82;;;1.92;;
19306;SDS011;9788;48.194;16.318;2023-11-21T10:52:39;3.90;;;1.50;;
19306;SDS011;9788;48.194;16.318;2023-11-21T10:55:16;8.00;;;2.20;;
19306;SDS011;9788;48.194;16.318;2023-11-21T10:57:49;5.85;;;1.95;;
19306;SDS011;9788;48.194;16.318;2023-11-21T11:00:20;15.88;;;2.35;;
19306;SDS011;9788;48.194;16.318;2023-11-21T11:02:50;3.03;;;1.50;;
19306;SDS011;9788;48.194;16.318;2023-11-21T11:05:21;3.72;;;1.90;;
19306;SDS011;9788;48.194;16.318;2023-11-21T11:07:50;6.93;;;2.13;;
19306;SDS011;9788;48.194;16.318;2023-11-21T11:10:26;6.47;;;2.58;;
19306;SDS011;9788;48.194;16.318;2023-11-21T11:12:57;3.83;;;1.83;;
19306;SDS011;9788;48.194;16.318;2023-11-21T11:15:27;6.65;;;2.00;;
19306;SDS011;9788;48.194;16.318;2023-11-21T11:17:55;10.20;;;6.47;;
19306;SDS011;9788;48.194;16.318;2023-11-21T11:20:29;8.80;;;1.90;;
19306;SDS011;9788;48.194;16.318;2023-11-21T11:23:07;5.80;;;1.58;;
19306;SDS011;9788;48.194;16.318;2023-11-21T11:25:47;6.32;;;2.08;;
19306;SDS011;9788;48.194;16.318;2023-11-21T11:28:29;5.68;;;2.10;;
19306;SDS011;9788;48.194;16.318;2023-11-21T11:31:09;4.43;;;1.90;;
19306;SDS011;9788;48.194;16.318;2023-11-21T11:33:53;6.07;;;2.00;;
19306;SDS011;9788;48.194;16.318;2023-11-21T11:36:28;5.30;;;2.00;;
19306;SDS011;9788;48.194;16.318;2023-11-21T11:39:02;5.35;;;1.98;;
19306;SDS011;9788;48.194;16.318;2023-11-21T11:41:31;7.78;;;2.83;;
19306;SDS011;9788;48.194;16.318;2023-11-21T11:44:02;7.30;;;2.60;;
19306;SDS011;9788;48.194;16.318;2023-11-21T11:46:41;5.15;;;2.10;;
19306;SDS011;9788;48.194;16.318;2023-11-21T11:49:23;2.55;;;1.40;;
19306;SDS011;9788;48.194;16.318;2023-11-21T11:54:56;6.28;;;2.50;;
19306;SDS011;9788;48.194;16.318;2023-11-21T11:57:24;9.30;;;4.07;;
19306;SDS011;9788;48.194;16.318;2023-11-21T12:00:11;6.75;;;2.60;;
19306;SDS011;9788;48.194;16.318;2023-11-21T12:02:45;4.88;;;2.40;;
19306;SDS011;9788;48.194;16.318;2023-11-21T12:05:15;2.97;;;1.90;;
19306;SDS011;9788;48.194;16.318;2023-11-21T12:07:46;4.07;;;1.70;;
19306;SDS011;9788;48.194;16.318;2023-11-21T12:10:16;2.78;;;1.70;;
19306;SDS011;9788;48.194;16.318;2023-11-21T12:12:46;5.50;;;1.88;;
19306;SDS011;9788;48.194;16.318;2023-11-21T12:15:16;6.07;;;2.00;;
19306;SDS011;9788;48.194;16.318;2023-11-21T12:17:45;5.70;;;1.98;;
19306;SDS011;9788;48.194;16.318;2023-11-21T12:20:16;4.47;;;2.28;;
19306;SDS011;9788;48.194;16.318;2023-11-21T12:22:47;5.65;;;2.33;;
19306;SDS011;9788;48.194;16.318;2023-11-21T12:25:19;4.10;;;2.00;;
19306;SDS011;9788;48.194;16.318;2023-11-21T12:27:49;3.33;;;1.80;;
19306;SDS011;9788;48.194;16.318;2023-11-21T12:30:21;7.40;;;2.72;;
19306;SDS011;9788;48.194;16.318;2023-11-21T12:32:55;6.75;;;3.45;;
19306;SDS011;9788;48.194;16.318;2023-11-21T12:35:24;4.05;;;2.50;;
19306;SDS011;9788;48.194;16.318;2023-11-21T12:37:54;6.57;;;3.08;;
19306;SDS011;9788;48.194;16.318;2023-11-21T12:40:24;5.22;;;1.92;;
19306;SDS011;9788;48.194;16.318;2023-11-21T12:42:54;5.72;;;2.72;;
19306;SDS011;9788;48.194;16.318;2023-11-21T12:45:25;9.60;;;2.20;;
19306;SDS011;9788;48.194;16.318;2023-11-21T12:47:55;4.30;;;2.20;;
19306;SDS011;9788;48.194;16.318;2023-11-21T12:50:27;8.68;;;2.83;;
19306;SDS011;9788;48.194;16.318;2023-11-21T12:52:58;5.18;;;2.40;;
19306;SDS011;9788;48.194;16.318;2023-11-21T12:55:30;6.00;;;2.53;;
19306;SDS011;9788;48.194;16.318;2023-11-21T12:58:00;7.63;;;2.15;;
19306;SDS011;9788;48.194;16.318;2023-11-21T13:00:37;7.00;;;2.28;;
19306;SDS011;9788;48.194;16.318;2023-11-21T13:03:09;8.98;;;2.47;;
19306;SDS011;9788;48.194;16.318;2023-11-21T13:05:43;5.32;;;2.67;;
19306;SDS011;9788;48.194;16.318;2023-11-21T13:08:14;5.43;;;2.30;;
19306;SDS011;9788;48.194;16.318;2023-11-21T13:10:47;5.47;;;1.90;;
19306;SDS011;9788;48.194;16.318;2023-11-21T13:13:17;4.22;;;1.90;;
19306;SDS011;9788;48.194;16.318;2023-11-21T13:15:52;2.50;;;1.50;;
19306;SDS011;9788;48.194;16.318;2023-11-21T13:18:23;6.93;;;2.30;;
19306;SDS011;9788;48.194;16.318;2023-11-21T13:20:53;4.70;;;2.80;;
19306;SDS011;9788;48.194;16.318;2023-11-21T13:23:23;7.28;;;2.75;;
19306;SDS011;9788;48.194;16.318;2023-11-21T13:25:51;5.47;;;2.13;;
19306;SDS011;9788;48.194;16.318;2023-11-21T13:28:30;6.63;;;2.08;;
19306;SDS011;9788;48.194;16.318;2023-11-21T13:31:02;7.93;;;1.90;;
19306;SDS011;9788;48.194;16.318;2023-11-21T13:33:37;6.43;;;2.92;;
19306;SDS011;9788;48.194;16.318;2023-11-21T13:36:20;5.45;;;2.38;;
19306;SDS011;9788;48.194;16.318;2023-11-21T13:38:49;5.53;;;2.42;;
19306;SDS011;9788;48.194;16.318;2023-11-21T13:41:19;7.40;;;2.33;;
19306;SDS011;9788;48.194;16.318;2023-11-21T13:43:54;4.28;;;2.60;;
19306;SDS011;9788;48.194;16.318;2023-11-21T13:46:31;6.15;;;2.90;;
19306;SDS011;9788;48.194;16.318;2023-11-21T13:49:04;9.18;;;2.75;;
19306;SDS011;9788;48.194;16.318;2023-11-21T13:51:36;7.40;;;3.30;;
19306;SDS011;9788;48.194;16.318;2023-11-21T13:54:07;5.30;;;2.97;;
19306;SDS011;9788;48.194;16.318;2023-11-21T13:56:37;7.53;;;3.10;;
19306;SDS011;9788;48.194;16.318;2023-11-21T13:59:07;6.57;;;2.78;;
19306;SDS011;9788;48.194;16.318;2023-11-21T14:01:46;7.95;;;2.90;;
19306;SDS011;9788;48.194;16.318;2023-11-21T14:04:26;6.68;;;3.13;;
19306;SDS011;9788;48.194;16.318;2023-11-21T14:07:23;8.90;;;2.95;;
19306;SDS011;9788;48.194;16.318;2023-11-21T14:09:59;6.50;;;2.58;;
19306;SDS011;9788;48.194;16.318;2023-11-21T14:12:27;9.82;;;3.15;;
19306;SDS011;9788;48.194;16.318;2023-11-21T14:15:04;9.40;;;4.03;;
19306;SDS011;9788;48.194;16.318;2023-11-21T14:17:37;9.45;;;4.03;;
19306;SDS011;9788;48.194;16.318;2023-11-21T14:20:08;6.90;;;4.03;;
19306;SDS011;9788;48.194;16.318;2023-11-21T14:22:43;9.55;;;3.97;;
19306;SDS011;9788;48.194;16.318;2023-11-21T14:25:13;7.10;;;3.50;;
19306;SDS011;9788;48.194;16.318;2023-11-21T14:27:42;10.02;;;3.58;;
19306;SDS011;9788;48.194;16.318;2023-11-21T14:30:10;7.80;;;3.70;;
19306;SDS011;9788;48.194;16.318;2023-11-21T14:32:41;7.80;;;4.10;;
19306;SDS011;9788;48.194;16.318;2023-11-21T14:35:09;5.82;;;3.50;;
19306;SDS011;9788;48.194;16.318;2023-11-21T14:37:38;9.35;;;3.60;;
19306;SDS011;9788;48.194;16.318;2023-11-21T14:40:06;10.35;;;4.45;;
19306;SDS011;9788;48.194;16.318;2023-11-21T14:42:35;9.07;;;3.97;;
19306;SDS011;9788;48.194;16.318;2023-11-21T14:45:06;7.22;;;3.78;;
19306;SDS011;9788;48.194;16.318;2023-11-21T14:47:39;7.72;;;3.80;;
19306;SDS011;9788;48.194;16.318;2023-11-21T14:50:14;9.23;;;4.15;;
19306;SDS011;9788;48.194;16.318;2023-11-21T14:53:05;17.80;;;5.60;;
19306;SDS011;9788;48.194;16.318;2023-11-21T14:55:34;12.65;;;5.13;;
19306;SDS011;9788;48.194;16.318;2023-11-21T14:58:19;11.60;;;5.18;;
19306;SDS011;9788;48.194;16.318;2023-11-21T15:00:53;12.50;;;4.90;;
19306;SDS011;9788;48.194;16.318;2023-11-21T15:03:24;9.77;;;3.95;;
19306;SDS011;9788;48.194;16.318;2023-11-21T15:06:11;11.48;;;5.95;;